Dogpatch, Arkansas
Current Conditions -  °F | °C
As of 10:53 AM on Sunday 23 Nov 2014 (Local Time) from KHRO Reporting Station
Haze Haze  
Wind Chill: 55°   Ceiling: 400
Heat Index: 55°   Visibility: 3mi
Dew Point: 55°   Wind: 6mph
Humidity: 100%   Direction: 130°SE
Pressure: 29.49"   Gusts: NA
Location:  36.0842°N, 93.1502°W
Report Text: KHRO 231653Z AUTO 13005KT 3SM BR OVC004 13/13 A2949 RMK AO2 SLP983 T01280128
Loading
Personal Weather Stations






























Interactive Weather Map New forecast layout! Learn more

10-Day Weather Forecast

Advertisements
Track Severe Weather on mobile